sensor_id;sensor_type;location;lat;lon;timestamp;P1;durP1;ratioP1;P2;durP2;ratioP2
2868;SDS011;1442;47.448;8.582;2023-11-21T00:00:53;4.88;;;1.50;;
2868;SDS011;1442;47.448;8.582;2023-11-21T00:03:20;7.60;;;1.88;;
2868;SDS011;1442;47.448;8.582;2023-11-21T00:05:48;8.82;;;1.90;;
2868;SDS011;1442;47.448;8.582;2023-11-21T00:08:15;7.55;;;2.53;;
2868;SDS011;1442;47.448;8.582;2023-11-21T00:10:44;6.22;;;1.60;;
2868;SDS011;1442;47.448;8.582;2023-11-21T00:13:11;7.00;;;2.20;;
2868;SDS011;1442;47.448;8.582;2023-11-21T00:15:38;6.43;;;2.25;;
2868;SDS011;1442;47.448;8.582;2023-11-21T00:18:06;12.38;;;2.30;;
2868;SDS011;1442;47.448;8.582;2023-11-21T00:20:33;9.27;;;1.63;;
2868;SDS011;1442;47.448;8.582;2023-11-21T00:23:00;10.32;;;2.55;;
2868;SDS011;1442;47.448;8.582;2023-11-21T00:25:27;10.18;;;2.90;;
2868;SDS011;1442;47.448;8.582;2023-11-21T00:27:56;2.65;;;1.58;;
2868;SDS011;1442;47.448;8.582;2023-11-21T00:30:24;11.65;;;1.73;;
2868;SDS011;1442;47.448;8.582;2023-11-21T00:32:51;8.40;;;1.70;;
2868;SDS011;1442;47.448;8.582;2023-11-21T00:35:19;11.15;;;1.73;;
2868;SDS011;1442;47.448;8.582;2023-11-21T00:37:46;6.78;;;1.70;;
2868;SDS011;1442;47.448;8.582;2023-11-21T00:40:14;9.93;;;2.08;;
2868;SDS011;1442;47.448;8.582;2023-11-21T00:42:44;8.07;;;1.50;;
2868;SDS011;1442;47.448;8.582;2023-11-21T00:45:12;7.15;;;1.75;;
2868;SDS011;1442;47.448;8.582;2023-11-21T00:47:40;8.43;;;1.60;;
2868;SDS011;1442;47.448;8.582;2023-11-21T00:50:07;6.43;;;1.85;;
2868;SDS011;1442;47.448;8.582;2023-11-21T00:52:35;15.55;;;2.28;;
2868;SDS011;1442;47.448;8.582;2023-11-21T00:55:02;9.10;;;1.55;;
2868;SDS011;1442;47.448;8.582;2023-11-21T00:57:29;5.57;;;1.52;;
2868;SDS011;1442;47.448;8.582;2023-11-21T00:59:56;6.63;;;1.88;;
2868;SDS011;1442;47.448;8.582;2023-11-21T01:02:25;4.60;;;1.27;;
2868;SDS011;1442;47.448;8.582;2023-11-21T01:04:52;7.60;;;2.33;;
2868;SDS011;1442;47.448;8.582;2023-11-21T01:07:19;9.52;;;1.85;;
2868;SDS011;1442;47.448;8.582;2023-11-21T01:09:46;3.92;;;1.48;;
2868;SDS011;1442;47.448;8.582;2023-11-21T01:12:13;5.18;;;1.35;;
2868;SDS011;1442;47.448;8.582;2023-11-21T01:14:42;8.65;;;1.45;;
2868;SDS011;1442;47.448;8.582;2023-11-21T01:17:10;7.35;;;1.95;;
2868;SDS011;1442;47.448;8.582;2023-11-21T01:19:38;10.27;;;1.83;;
2868;SDS011;1442;47.448;8.582;2023-11-21T01:22:06;8.00;;;1.40;;
2868;SDS011;1442;47.448;8.582;2023-11-21T01:24:33;6.00;;;1.10;;
2868;SDS011;1442;47.448;8.582;2023-11-21T01:27:01;13.02;;;1.70;;
2868;SDS011;1442;47.448;8.582;2023-11-21T01:29:29;13.77;;;2.13;;
2868;SDS011;1442;47.448;8.582;2023-11-21T01:31:56;10.63;;;1.90;;
2868;SDS011;1442;47.448;8.582;2023-11-21T01:34:23;8.10;;;1.90;;
2868;SDS011;1442;47.448;8.582;2023-11-21T01:36:52;3.22;;;1.45;;
2868;SDS011;1442;47.448;8.582;2023-11-21T01:39:19;6.25;;;1.88;;
2868;SDS011;1442;47.448;8.582;2023-11-21T01:41:48;12.05;;;1.70;;
2868;SDS011;1442;47.448;8.582;2023-11-21T01:44:17;6.38;;;1.50;;
2868;SDS011;1442;47.448;8.582;2023-11-21T01:46:44;8.88;;;2.15;;
2868;SDS011;1442;47.448;8.582;2023-11-21T01:49:12;4.97;;;1.58;;
2868;SDS011;1442;47.448;8.582;2023-11-21T01:51:40;13.77;;;2.60;;
2868;SDS011;1442;47.448;8.582;2023-11-21T01:54:10;7.47;;;1.75;;
2868;SDS011;1442;47.448;8.582;2023-11-21T01:56:37;6.43;;;1.52;;
2868;SDS011;1442;47.448;8.582;2023-11-21T01:59:05;8.05;;;1.42;;
2868;SDS011;1442;47.448;8.582;2023-11-21T02:01:32;7.43;;;2.20;;
2868;SDS011;1442;47.448;8.582;2023-11-21T02:03:59;11.32;;;2.10;;
2868;SDS011;1442;47.448;8.582;2023-11-21T02:06:27;6.20;;;1.60;;
2868;SDS011;1442;47.448;8.582;2023-11-21T02:08:56;10.55;;;1.90;;
2868;SDS011;1442;47.448;8.582;2023-11-21T02:11:26;5.78;;;1.75;;
2868;SDS011;1442;47.448;8.582;2023-11-21T02:13:53;11.20;;;2.17;;
2868;SDS011;1442;47.448;8.582;2023-11-21T02:16:20;8.48;;;1.88;;
2868;SDS011;1442;47.448;8.582;2023-11-21T02:18:47;7.15;;;1.30;;
2868;SDS011;1442;47.448;8.582;2023-11-21T02:21:15;7.00;;;1.27;;
2868;SDS011;1442;47.448;8.582;2023-11-21T02:23:43;7.68;;;1.70;;
2868;SDS011;1442;47.448;8.582;2023-11-21T02:26:11;5.03;;;1.10;;
2868;SDS011;1442;47.448;8.582;2023-11-21T02:28:39;5.63;;;1.60;;
2868;SDS011;1442;47.448;8.582;2023-11-21T02:31:07;3.75;;;1.33;;
2868;SDS011;1442;47.448;8.582;2023-11-21T02:33:34;5.25;;;1.52;;
2868;SDS011;1442;47.448;8.582;2023-11-21T02:36:02;7.82;;;1.30;;
2868;SDS011;1442;47.448;8.582;2023-11-21T02:38:30;4.75;;;1.48;;
2868;SDS011;1442;47.448;8.582;2023-11-21T02:40:59;4.18;;;1.30;;
2868;SDS011;1442;47.448;8.582;2023-11-21T02:43:26;5.70;;;1.65;;
2868;SDS011;1442;47.448;8.582;2023-11-21T02:45:53;13.60;;;1.80;;
2868;SDS011;1442;47.448;8.582;2023-11-21T02:48:20;8.77;;;1.75;;
2868;SDS011;1442;47.448;8.582;2023-11-21T02:50:49;4.25;;;1.13;;
2868;SDS011;1442;47.448;8.582;2023-11-21T02:53:18;4.78;;;1.52;;
2868;SDS011;1442;47.448;8.582;2023-11-21T02:55:45;3.22;;;1.08;;
2868;SDS011;1442;47.448;8.582;2023-11-21T02:58:14;8.80;;;1.75;;
2868;SDS011;1442;47.448;8.582;2023-11-21T03:00:41;4.22;;;1.25;;
2868;SDS011;1442;47.448;8.582;2023-11-21T03:03:08;6.65;;;1.20;;
2868;SDS011;1442;47.448;8.582;2023-11-21T03:05:35;4.47;;;1.30;;
2868;SDS011;1442;47.448;8.582;2023-11-21T03:08:03;10.60;;;2.42;;
2868;SDS011;1442;47.448;8.582;2023-11-21T03:10:30;5.22;;;1.10;;
2868;SDS011;1442;47.448;8.582;2023-11-21T03:12:58;3.25;;;1.00;;
2868;SDS011;1442;47.448;8.582;2023-11-21T03:15:26;6.82;;;1.13;;
2868;SDS011;1442;47.448;8.582;2023-11-21T03:17:53;4.60;;;1.10;;
2868;SDS011;1442;47.448;8.582;2023-11-21T03:20:20;2.72;;;1.10;;
2868;SDS011;1442;47.448;8.582;2023-11-21T03:22:47;4.43;;;1.48;;
2868;SDS011;1442;47.448;8.582;2023-11-21T03:25:15;2.67;;;1.17;;
2868;SDS011;1442;47.448;8.582;2023-11-21T03:27:43;6.57;;;1.30;;
2868;SDS011;1442;47.448;8.582;2023-11-21T03:30:10;4.13;;;1.50;;
2868;SDS011;1442;47.448;8.582;2023-11-21T03:32:39;4.63;;;1.27;;
2868;SDS011;1442;47.448;8.582;2023-11-21T03:35:07;7.50;;;1.40;;
2868;SDS011;1442;47.448;8.582;2023-11-21T03:37:34;4.50;;;1.00;;
2868;SDS011;1442;47.448;8.582;2023-11-21T03:40:03;4.68;;;1.20;;
2868;SDS011;1442;47.448;8.582;2023-11-21T03:42:33;6.78;;;1.20;;
2868;SDS011;1442;47.448;8.582;2023-11-21T03:45:00;11.45;;;1.65;;
2868;SDS011;1442;47.448;8.582;2023-11-21T03:47:28;5.03;;;1.02;;
2868;SDS011;1442;47.448;8.582;2023-11-21T03:49:56;4.03;;;1.15;;
2868;SDS011;1442;47.448;8.582;2023-11-21T03:52:23;6.32;;;1.20;;
2868;SDS011;1442;47.448;8.582;2023-11-21T03:54:52;4.93;;;1.10;;
2868;SDS011;1442;47.448;8.582;2023-11-21T03:57:20;5.32;;;0.95;;
2868;SDS011;1442;47.448;8.582;2023-11-21T03:59:47;7.13;;;1.30;;
2868;SDS011;1442;47.448;8.582;2023-11-21T04:02:14;2.67;;;0.90;;
2868;SDS011;1442;47.448;8.582;2023-11-21T04:04:42;3.15;;;1.15;;
2868;SDS011;1442;47.448;8.582;2023-11-21T04:07:10;3.05;;;0.82;;
2868;SDS011;1442;47.448;8.582;2023-11-21T04:09:38;3.25;;;1.10;;
2868;SDS011;1442;47.448;8.582;2023-11-21T04:12:06;6.70;;;1.20;;
2868;SDS011;1442;47.448;8.582;2023-11-21T04:14:35;7.43;;;1.35;;
2868;SDS011;1442;47.448;8.582;2023-11-21T04:17:02;5.38;;;1.23;;
2868;SDS011;1442;47.448;8.582;2023-11-21T04:19:30;8.45;;;2.03;;
2868;SDS011;1442;47.448;8.582;2023-11-21T04:21:57;5.18;;;1.52;;
2868;SDS011;1442;47.448;8.582;2023-11-21T04:24:25;5.95;;;2.00;;
2868;SDS011;1442;47.448;8.582;2023-11-21T04:26:53;6.50;;;1.67;;
2868;SDS011;1442;47.448;8.582;2023-11-21T04:29:20;3.30;;;1.70;;
2868;SDS011;1442;47.448;8.582;2023-11-21T04:31:47;4.68;;;1.48;;
2868;SDS011;1442;47.448;8.582;2023-11-21T04:34:15;8.70;;;1.30;;
2868;SDS011;1442;47.448;8.582;2023-11-21T04:36:42;2.83;;;1.05;;
2868;SDS011;1442;47.448;8.582;2023-11-21T04:39:10;3.17;;;1.48;;
2868;SDS011;1442;47.448;8.582;2023-11-21T04:41:38;1.63;;;1.00;;
2868;SDS011;1442;47.448;8.582;2023-11-21T04:44:06;6.40;;;1.67;;
2868;SDS011;1442;47.448;8.582;2023-11-21T04:46:33;10.95;;;1.38;;
2868;SDS011;1442;47.448;8.582;2023-11-21T04:49:00;6.28;;;1.10;;
2868;SDS011;1442;47.448;8.582;2023-11-21T04:51:27;2.80;;;0.82;;
2868;SDS011;1442;47.448;8.582;2023-11-21T04:53:54;5.03;;;1.42;;
2868;SDS011;1442;47.448;8.582;2023-11-21T04:56:21;1.98;;;0.80;;
2868;SDS011;1442;47.448;8.582;2023-11-21T04:58:51;2.65;;;0.80;;
2868;SDS011;1442;47.448;8.582;2023-11-21T05:01:18;3.25;;;1.10;;
2868;SDS011;1442;47.448;8.582;2023-11-21T05:03:46;2.58;;;0.70;;
2868;SDS011;1442;47.448;8.582;2023-11-21T05:06:14;3.90;;;1.17;;
2868;SDS011;1442;47.448;8.582;2023-11-21T05:08:41;6.43;;;1.20;;
2868;SDS011;1442;47.448;8.582;2023-11-21T05:11:08;3.42;;;1.02;;
2868;SDS011;1442;47.448;8.582;2023-11-21T05:13:35;4.25;;;0.90;;
2868;SDS011;1442;47.448;8.582;2023-11-21T05:16:05;2.55;;;0.90;;
2868;SDS011;1442;47.448;8.582;2023-11-21T05:18:33;5.22;;;1.23;;
2868;SDS011;1442;47.448;8.582;2023-11-21T05:21:00;6.53;;;1.02;;
2868;SDS011;1442;47.448;8.582;2023-11-21T05:23:27;2.83;;;1.00;;
2868;SDS011;1442;47.448;8.582;2023-11-21T05:25:54;3.50;;;1.30;;
2868;SDS011;1442;47.448;8.582;2023-11-21T05:28:22;6.38;;;0.90;;
2868;SDS011;1442;47.448;8.582;2023-11-21T05:30:49;7.05;;;1.08;;
2868;SDS011;1442;47.448;8.582;2023-11-21T05:33:17;3.05;;;1.10;;
2868;SDS011;1442;47.448;8.582;2023-11-21T05:35:44;2.17;;;0.90;;
2868;SDS011;1442;47.448;8.582;2023-11-21T05:38:13;2.83;;;0.73;;
2868;SDS011;1442;47.448;8.582;2023-11-21T05:40:40;2.33;;;0.85;;
2868;SDS011;1442;47.448;8.582;2023-11-21T05:43:09;4.05;;;1.80;;
2868;SDS011;1442;47.448;8.582;2023-11-21T05:45:37;3.33;;;1.10;;
2868;SDS011;1442;47.448;8.582;2023-11-21T05:48:04;4.40;;;1.50;;
2868;SDS011;1442;47.448;8.582;2023-11-21T05:50:32;5.25;;;1.45;;
2868;SDS011;1442;47.448;8.582;2023-11-21T05:52:59;4.90;;;1.10;;
2868;SDS011;1442;47.448;8.582;2023-11-21T05:55:27;4.63;;;0.85;;
2868;SDS011;1442;47.448;8.582;2023-11-21T05:57:54;3.75;;;1.27;;
2868;SDS011;1442;47.448;8.582;2023-11-21T06:00:22;2.85;;;0.90;;
2868;SDS011;1442;47.448;8.582;2023-11-21T06:02:50;3.45;;;0.90;;
2868;SDS011;1442;47.448;8.582;2023-11-21T06:05:18;2.75;;;1.15;;
2868;SDS011;1442;47.448;8.582;2023-11-21T06:07:49;5.50;;;0.90;;
2868;SDS011;1442;47.448;8.582;2023-11-21T06:10:17;3.28;;;1.15;;
2868;SDS011;1442;47.448;8.582;2023-11-21T06:12:44;5.68;;;1.15;;
2868;SDS011;1442;47.448;8.582;2023-11-21T06:15:11;1.48;;;0.85;;
2868;SDS011;1442;47.448;8.582;2023-11-21T06:17:40;2.00;;;0.80;;
2868;SDS011;1442;47.448;8.582;2023-11-21T06:20:08;5.10;;;1.08;;
2868;SDS011;1442;47.448;8.582;2023-11-21T06:22:39;3.53;;;0.90;;
2868;SDS011;1442;47.448;8.582;2023-11-21T06:25:08;3.60;;;1.02;;
2868;SDS011;1442;47.448;8.582;2023-11-21T06:27:38;3.33;;;0.95;;
2868;SDS011;1442;47.448;8.582;2023-11-21T06:30:06;4.90;;;0.82;;
2868;SDS011;1442;47.448;8.582;2023-11-21T06:32:34;1.85;;;1.10;;
2868;SDS011;1442;47.448;8.582;2023-11-21T06:35:01;6.25;;;1.30;;
2868;SDS011;1442;47.448;8.582;2023-11-21T06:37:29;3.30;;;1.10;;
2868;SDS011;1442;47.448;8.582;2023-11-21T06:39:57;6.80;;;1.45;;
2868;SDS011;1442;47.448;8.582;2023-11-21T06:42:25;5.32;;;1.00;;
2868;SDS011;1442;47.448;8.582;2023-11-21T06:44:54;5.88;;;1.00;;
2868;SDS011;1442;47.448;8.582;2023-11-21T06:47:22;3.67;;;0.88;;
2868;SDS011;1442;47.448;8.582;2023-11-21T06:49:50;5.70;;;1.83;;
2868;SDS011;1442;47.448;8.582;2023-11-21T06:52:17;6.55;;;1.80;;
2868;SDS011;1442;47.448;8.582;2023-11-21T06:54:44;4.40;;;2.17;;
2868;SDS011;1442;47.448;8.582;2023-11-21T06:57:12;5.65;;;1.85;;
2868;SDS011;1442;47.448;8.582;2023-11-21T06:59:41;3.90;;;1.70;;
2868;SDS011;1442;47.448;8.582;2023-11-21T07:02:08;3.78;;;1.38;;
2868;SDS011;1442;47.448;8.582;2023-11-21T07:04:35;5.38;;;1.70;;
2868;SDS011;1442;47.448;8.582;2023-11-21T07:07:02;2.92;;;1.30;;
2868;SDS011;1442;47.448;8.582;2023-11-21T07:09:31;7.95;;;1.45;;
2868;SDS011;1442;47.448;8.582;2023-11-21T07:11:59;3.80;;;1.52;;
2868;SDS011;1442;47.448;8.582;2023-11-21T07:14:26;6.38;;;1.30;;
2868;SDS011;1442;47.448;8.582;2023-11-21T07:16:55;6.35;;;1.27;;
2868;SDS011;1442;47.448;8.582;2023-11-21T07:19:22;4.88;;;1.17;;
2868;SDS011;1442;47.448;8.582;2023-11-21T07:21:49;3.88;;;1.40;;
2868;SDS011;1442;47.448;8.582;2023-11-21T07:24:17;8.35;;;1.50;;
2868;SDS011;1442;47.448;8.582;2023-11-21T07:26:44;3.58;;;1.52;;
2868;SDS011;1442;47.448;8.582;2023-11-21T07:29:11;6.45;;;1.02;;
2868;SDS011;1442;47.448;8.582;2023-11-21T07:31:38;6.03;;;1.65;;
2868;SDS011;1442;47.448;8.582;2023-11-21T07:34:07;3.95;;;1.30;;
2868;SDS011;1442;47.448;8.582;2023-11-21T07:36:34;7.90;;;1.38;;
2868;SDS011;1442;47.448;8.582;2023-11-21T07:39:02;2.13;;;1.35;;
2868;SDS011;1442;47.448;8.582;2023-11-21T07:41:29;3.25;;;1.30;;
2868;SDS011;1442;47.448;8.582;2023-11-21T07:43:57;2.70;;;1.23;;
2868;SDS011;1442;47.448;8.582;2023-11-21T07:46:24;3.85;;;1.15;;
2868;SDS011;1442;47.448;8.582;2023-11-21T07:48:52;8.88;;;1.42;;
2868;SDS011;1442;47.448;8.582;2023-11-21T07:51:21;11.43;;;1.20;;
2868;SDS011;1442;47.448;8.582;2023-11-21T07:53:48;2.38;;;1.20;;
2868;SDS011;1442;47.448;8.582;2023-11-21T07:56:15;4.18;;;1.30;;
2868;SDS011;1442;47.448;8.582;2023-11-21T07:58:43;3.13;;;1.30;;
2868;SDS011;1442;47.448;8.582;2023-11-21T08:01:10;6.78;;;1.20;;
2868;SDS011;1442;47.448;8.582;2023-11-21T08:03:37;6.97;;;1.25;;
2868;SDS011;1442;47.448;8.582;2023-11-21T08:06:05;9.15;;;1.92;;
2868;SDS011;1442;47.448;8.582;2023-11-21T08:08:33;2.83;;;1.27;;
2868;SDS011;1442;47.448;8.582;2023-11-21T08:11:01;6.25;;;1.20;;
2868;SDS011;1442;47.448;8.582;2023-11-21T08:13:28;9.63;;;1.88;;
2868;SDS011;1442;47.448;8.582;2023-11-21T08:15:56;7.68;;;1.52;;
2868;SDS011;1442;47.448;8.582;2023-11-21T08:18:27;4.13;;;1.73;;
2868;SDS011;1442;47.448;8.582;2023-11-21T08:20:55;3.88;;;1.30;;
2868;SDS011;1442;47.448;8.582;2023-11-21T08:23:23;6.15;;;1.67;;
2868;SDS011;1442;47.448;8.582;2023-11-21T08:25:52;6.47;;;1.33;;
2868;SDS011;1442;47.448;8.582;2023-11-21T08:28:19;6.10;;;1.33;;
2868;SDS011;1442;47.448;8.582;2023-11-21T08:30:47;3.35;;;1.10;;
2868;SDS011;1442;47.448;8.582;2023-11-21T08:33:14;5.20;;;1.20;;
2868;SDS011;1442;47.448;8.582;2023-11-21T08:35:41;6.03;;;1.40;;
2868;SDS011;1442;47.448;8.582;2023-11-21T08:38:08;6.55;;;1.40;;
2868;SDS011;1442;47.448;8.582;2023-11-21T08:40:36;3.03;;;1.27;;
2868;SDS011;1442;47.448;8.582;2023-11-21T08:43:04;7.65;;;1.63;;
2868;SDS011;1442;47.448;8.582;2023-11-21T08:45:32;7.50;;;1.52;;
2868;SDS011;1442;47.448;8.582;2023-11-21T08:48:00;2.47;;;1.20;;
2868;SDS011;1442;47.448;8.582;2023-11-21T08:50:27;4.10;;;1.33;;
2868;SDS011;1442;47.448;8.582;2023-11-21T08:52:54;4.65;;;1.38;;
2868;SDS011;1442;47.448;8.582;2023-11-21T08:55:21;10.90;;;2.38;;
2868;SDS011;1442;47.448;8.582;2023-11-21T08:57:48;8.80;;;1.45;;
2868;SDS011;1442;47.448;8.582;2023-11-21T09:00:17;8.77;;;1.35;;
2868;SDS011;1442;47.448;8.582;2023-11-21T09:02:44;5.18;;;1.20;;
2868;SDS011;1442;47.448;8.582;2023-11-21T09:05:12;2.25;;;1.25;;
2868;SDS011;1442;47.448;8.582;2023-11-21T09:07:40;2.70;;;1.05;;
2868;SDS011;1442;47.448;8.582;2023-11-21T09:10:07;6.43;;;1.50;;
2868;SDS011;1442;47.448;8.582;2023-11-21T09:12:35;2.20;;;1.20;;
2868;SDS011;1442;47.448;8.582;2023-11-21T09:15:03;2.72;;;0.80;;
2868;SDS011;1442;47.448;8.582;2023-11-21T09:17:32;6.00;;;1.10;;
2868;SDS011;1442;47.448;8.582;2023-11-21T09:19:59;3.55;;;0.93;;
2868;SDS011;1442;47.448;8.582;2023-11-21T09:22:28;3.58;;;1.05;;
2868;SDS011;1442;47.448;8.582;2023-11-21T09:24:56;3.63;;;1.23;;
2868;SDS011;1442;47.448;8.582;2023-11-21T09:27:24;7.93;;;1.17;;
2868;SDS011;1442;47.448;8.582;2023-11-21T09:29:51;3.33;;;1.20;;
2868;SDS011;1442;47.448;8.582;2023-11-21T09:32:19;7.90;;;1.35;;
2868;SDS011;1442;47.448;8.582;2023-11-21T09:34:48;3.72;;;1.40;;
2868;SDS011;1442;47.448;8.582;2023-11-21T09:37:15;3.00;;;1.10;;
2868;SDS011;1442;47.448;8.582;2023-11-21T09:39:42;5.63;;;1.27;;
2868;SDS011;1442;47.448;8.582;2023-11-21T09:42:10;6.03;;;1.25;;
2868;SDS011;1442;47.448;8.582;2023-11-21T09:44:41;4.65;;;0.95;;
2868;SDS011;1442;47.448;8.582;2023-11-21T09:47:10;3.85;;;1.30;;
2868;SDS011;1442;47.448;8.582;2023-11-21T09:49:41;3.90;;;1.25;;
2868;SDS011;1442;47.448;8.582;2023-11-21T09:52:13;5.32;;;1.63;;
2868;SDS011;1442;47.448;8.582;2023-11-21T09:54:42;2.33;;;1.00;;
2868;SDS011;1442;47.448;8.582;2023-11-21T09:57:10;1.80;;;1.33;;
2868;SDS011;1442;47.448;8.582;2023-11-21T09:59:38;4.20;;;1.33;;
2868;SDS011;1442;47.448;8.582;2023-11-21T10:02:05;4.18;;;1.45;;
2868;SDS011;1442;47.448;8.582;2023-11-21T10:07:05;4.63;;;1.20;;
2868;SDS011;1442;47.448;8.582;2023-11-21T10:09:35;1.95;;;1.10;;
2868;SDS011;1442;47.448;8.582;2023-11-21T10:12:04;5.30;;;1.23;;
2868;SDS011;1442;47.448;8.582;2023-11-21T10:14:33;3.60;;;0.90;;
2868;SDS011;1442;47.448;8.582;2023-11-21T10:17:01;2.03;;;1.30;;
2868;SDS011;1442;47.448;8.582;2023-11-21T10:19:28;6.32;;;1.00;;
2868;SDS011;1442;47.448;8.582;2023-11-21T10:21:57;1.48;;;0.80;;
2868;SDS011;1442;47.448;8.582;2023-11-21T10:24:25;2.13;;;0.88;;
2868;SDS011;1442;47.448;8.582;2023-11-21T10:26:54;1.65;;;0.85;;
2868;SDS011;1442;47.448;8.582;2023-11-21T10:29:21;4.20;;;1.00;;
2868;SDS011;1442;47.448;8.582;2023-11-21T10:31:49;2.92;;;0.98;;
2868;SDS011;1442;47.448;8.582;2023-11-21T10:34:17;5.65;;;1.20;;
2868;SDS011;1442;47.448;8.582;2023-11-21T10:36:44;4.03;;;1.10;;
2868;SDS011;1442;47.448;8.582;2023-11-21T10:39:13;6.32;;;1.60;;
2868;SDS011;1442;47.448;8.582;2023-11-21T10:41:43;4.40;;;1.50;;
2868;SDS011;1442;47.448;8.582;2023-11-21T10:44:14;5.65;;;1.25;;
2868;SDS011;1442;47.448;8.582;2023-11-21T10:46:45;6.47;;;1.88;;
2868;SDS011;1442;47.448;8.582;2023-11-21T10:49:15;2.55;;;1.20;;
2868;SDS011;1442;47.448;8.582;2023-11-21T10:51:43;2.22;;;1.13;;
2868;SDS011;1442;47.448;8.582;2023-11-21T10:54:10;3.95;;;1.48;;
2868;SDS011;1442;47.448;8.582;2023-11-21T10:56:39;4.75;;;1.75;;
2868;SDS011;1442;47.448;8.582;2023-11-21T10:59:09;3.65;;;1.58;;
2868;SDS011;1442;47.448;8.582;2023-11-21T11:01:41;4.53;;;1.55;;
2868;SDS011;1442;47.448;8.582;2023-11-21T11:04:09;4.78;;;1.58;;
2868;SDS011;1442;47.448;8.582;2023-11-21T11:06:40;1.95;;;1.25;;
2868;SDS011;1442;47.448;8.582;2023-11-21T11:09:08;11.63;;;1.52;;
2868;SDS011;1442;47.448;8.582;2023-11-21T11:11:38;2.78;;;1.20;;
2868;SDS011;1442;47.448;8.582;2023-11-21T11:14:06;5.65;;;1.50;;
2868;SDS011;1442;47.448;8.582;2023-11-21T11:16:33;7.53;;;1.20;;
2868;SDS011;1442;47.448;8.582;2023-11-21T11:19:02;2.67;;;1.10;;
2868;SDS011;1442;47.448;8.582;2023-11-21T11:21:31;2.47;;;1.40;;
2868;SDS011;1442;47.448;8.582;2023-11-21T11:24:20;5.95;;;1.40;;
2868;SDS011;1442;47.448;8.582;2023-11-21T11:26:51;3.40;;;1.02;;
2868;SDS011;1442;47.448;8.582;2023-11-21T11:29:23;3.85;;;1.35;;
2868;SDS011;1442;47.448;8.582;2023-11-21T11:31:57;4.00;;;1.30;;
2868;SDS011;1442;47.448;8.582;2023-11-21T11:34:32;3.47;;;1.35;;
2868;SDS011;1442;47.448;8.582;2023-11-21T11:37:00;3.05;;;1.23;;
2868;SDS011;1442;47.448;8.582;2023-11-21T11:39:29;3.25;;;1.15;;
2868;SDS011;1442;47.448;8.582;2023-11-21T11:41:56;3.55;;;1.13;;
2868;SDS011;1442;47.448;8.582;2023-11-21T11:47:13;2.35;;;0.90;;
2868;SDS011;1442;47.448;8.582;2023-11-21T11:49:52;0.88;;;0.85;;
2868;SDS011;1442;47.448;8.582;2023-11-21T11:52:37;4.03;;;1.80;;
2868;SDS011;1442;47.448;8.582;2023-11-21T11:55:06;1.27;;;0.65;;
2868;SDS011;1442;47.448;8.582;2023-11-21T11:57:35;1.20;;;0.90;;
2868;SDS011;1442;47.448;8.582;2023-11-21T12:00:07;2.38;;;0.88;;
2868;SDS011;1442;47.448;8.582;2023-11-21T12:02:35;2.00;;;0.90;;
2868;SDS011;1442;47.448;8.582;2023-11-21T12:05:08;2.38;;;1.00;;
2868;SDS011;1442;47.448;8.582;2023-11-21T12:07:48;1.42;;;1.08;;
2868;SDS011;1442;47.448;8.582;2023-11-21T12:10:18;2.40;;;0.82;;
2868;SDS011;1442;47.448;8.582;2023-11-21T12:12:46;2.25;;;0.80;;
2868;SDS011;1442;47.448;8.582;2023-11-21T12:15:14;1.10;;;0.70;;
2868;SDS011;1442;47.448;8.582;2023-11-21T12:17:42;1.33;;;1.05;;
2868;SDS011;1442;47.448;8.582;2023-11-21T12:20:11;1.48;;;0.82;;
2868;SDS011;1442;47.448;8.582;2023-11-21T12:22:43;1.10;;;0.80;;
2868;SDS011;1442;47.448;8.582;2023-11-21T12:25:13;3.38;;;1.17;;
2868;SDS011;1442;47.448;8.582;2023-11-21T12:27:42;2.17;;;1.00;;
2868;SDS011;1442;47.448;8.582;2023-11-21T12:30:11;4.57;;;1.10;;
2868;SDS011;1442;47.448;8.582;2023-11-21T12:32:40;1.27;;;0.90;;
2868;SDS011;1442;47.448;8.582;2023-11-21T12:35:08;1.95;;;1.08;;
2868;SDS011;1442;47.448;8.582;2023-11-21T12:37:37;1.23;;;0.93;;
2868;SDS011;1442;47.448;8.582;2023-11-21T12:40:05;1.63;;;1.00;;
2868;SDS011;1442;47.448;8.582;2023-11-21T12:42:33;2.25;;;1.08;;
2868;SDS011;1442;47.448;8.582;2023-11-21T12:45:07;3.25;;;0.95;;
2868;SDS011;1442;47.448;8.582;2023-11-21T12:47:39;4.85;;;1.25;;
2868;SDS011;1442;47.448;8.582;2023-11-21T12:50:06;3.55;;;1.23;;
2868;SDS011;1442;47.448;8.582;2023-11-21T12:52:40;1.70;;;1.10;;
2868;SDS011;1442;47.448;8.582;2023-11-21T12:55:09;1.38;;;1.05;;
2868;SDS011;1442;47.448;8.582;2023-11-21T12:57:40;2.88;;;1.38;;
2868;SDS011;1442;47.448;8.582;2023-11-21T13:00:08;4.38;;;2.58;;
2868;SDS011;1442;47.448;8.582;2023-11-21T13:02:49;5.45;;;2.50;;
2868;SDS011;1442;47.448;8.582;2023-11-21T13:05:23;7.00;;;3.58;;
2868;SDS011;1442;47.448;8.582;2023-11-21T13:07:52;6.50;;;2.80;;
2868;SDS011;1442;47.448;8.582;2023-11-21T13:10:19;6.13;;;1.85;;
2868;SDS011;1442;47.448;8.582;2023-11-21T13:12:50;1.80;;;1.63;;
2868;SDS011;1442;47.448;8.582;2023-11-21T13:15:17;2.05;;;1.40;;
2868;SDS011;1442;47.448;8.582;2023-11-21T13:17:45;3.08;;;1.40;;
2868;SDS011;1442;47.448;8.582;2023-11-21T13:20:13;2.45;;;0.90;;
2868;SDS011;1442;47.448;8.582;2023-11-21T13:22:45;1.17;;;1.10;;
2868;SDS011;1442;47.448;8.582;2023-11-21T13:25:13;2.25;;;1.30;;
2868;SDS011;1442;47.448;8.582;2023-11-21T13:27:42;2.95;;;1.50;;
2868;SDS011;1442;47.448;8.582;2023-11-21T13:30:11;4.10;;;2.00;;
2868;SDS011;1442;47.448;8.582;2023-11-21T13:32:40;2.15;;;1.40;;
2868;SDS011;1442;47.448;8.582;2023-11-21T13:35:07;1.45;;;1.35;;
2868;SDS011;1442;47.448;8.582;2023-11-21T13:37:40;2.13;;;1.60;;
2868;SDS011;1442;47.448;8.582;2023-11-21T13:40:10;3.65;;;1.60;;
2868;SDS011;1442;47.448;8.582;2023-11-21T13:42:41;2.38;;;1.60;;
2868;SDS011;1442;47.448;8.582;2023-11-21T13:45:09;3.75;;;1.77;;
2868;SDS011;1442;47.448;8.582;2023-11-21T13:47:37;2.42;;;1.42;;
2868;SDS011;1442;47.448;8.582;2023-11-21T13:50:05;2.58;;;1.60;;
2868;SDS011;1442;47.448;8.582;2023-11-21T13:52:42;2.22;;;1.80;;
2868;SDS011;1442;47.448;8.582;2023-11-21T13:55:10;2.25;;;1.80;;
2868;SDS011;1442;47.448;8.582;2023-11-21T13:57:42;4.38;;;1.50;;
2868;SDS011;1442;47.448;8.582;2023-11-21T14:00:12;1.85;;;1.67;;
2868;SDS011;1442;47.448;8.582;2023-11-21T14:03:01;4.82;;;2.05;;
2868;SDS011;1442;47.448;8.582;2023-11-21T14:08:00;2.17;;;1.90;;
2868;SDS011;1442;47.448;8.582;2023-11-21T14:10:30;3.03;;;2.00;;
2868;SDS011;1442;47.448;8.582;2023-11-21T14:13:06;4.20;;;2.28;;
2868;SDS011;1442;47.448;8.582;2023-11-21T14:15:35;2.55;;;2.00;;
2868;SDS011;1442;47.448;8.582;2023-11-21T14:18:06;5.65;;;2.10;;
2868;SDS011;1442;47.448;8.582;2023-11-21T14:20:35;1.95;;;1.83;;
2868;SDS011;1442;47.448;8.582;2023-11-21T14:23:03;4.25;;;2.20;;
2868;SDS011;1442;47.448;8.582;2023-11-21T14:25:31;6.22;;;2.50;;
2868;SDS011;1442;47.448;8.582;2023-11-21T14:27:58;5.55;;;2.67;;
2868;SDS011;1442;47.448;8.582;2023-11-21T14:30:27;2.20;;;2.00;;
2868;SDS011;1442;47.448;8.582;2023-11-21T14:32:57;3.20;;;2.00;;
2868;SDS011;1442;47.448;8.582;2023-11-21T14:35:24;2.65;;;2.13;;
2868;SDS011;1442;47.448;8.582;2023-11-21T14:37:51;4.25;;;2.10;;
2868;SDS011;1442;47.448;8.582;2023-11-21T14:40:19;4.43;;;1.80;;
2868;SDS011;1442;47.448;8.582;2023-11-21T14:42:49;5.18;;;1.70;;
2868;SDS011;1442;47.448;8.582;2023-11-21T14:45:18;5.38;;;1.92;;
2868;SDS011;1442;47.448;8.582;2023-11-21T14:47:47;5.03;;;2.95;;
2868;SDS011;1442;47.448;8.582;2023-11-21T14:50:22;2.63;;;1.80;;
2868;SDS011;1442;47.448;8.582;2023-11-21T14:53:06;4.00;;;1.70;;
2868;SDS011;1442;47.448;8.582;2023-11-21T14:55:34;4.75;;;1.73;;
2868;SDS011;1442;47.448;8.582;2023-11-21T14:58:17;2.88;;;1.23;;
2868;SDS011;1442;47.448;8.582;2023-11-21T15:00:51;4.03;;;2.53;;
2868;SDS011;1442;47.448;8.582;2023-11-21T15:03:24;2.78;;;1.67;;
2868;SDS011;1442;47.448;8.582;2023-11-21T15:06:13;2.28;;;1.70;;
2868;SDS011;1442;47.448;8.582;2023-11-21T15:08:44;1.92;;;1.80;;
2868;SDS011;1442;47.448;8.582;2023-11-21T15:11:18;3.53;;;1.85;;
2868;SDS011;1442;47.448;8.582;2023-11-21T15:13:49;2.70;;;1.70;;
2868;SDS011;1442;47.448;8.582;2023-11-21T15:16:17;5.30;;;1.70;;
2868;SDS011;1442;47.448;8.582;2023-11-21T15:18:46;1.98;;;1.52;;
2868;SDS011;1442;47.448;8.582;2023-11-21T15:21:14;2.28;;;1.55;;
2868;SDS011;1442;47.448;8.582;2023-11-21T15:23:41;3.38;;;1.63;;
2868;SDS011;1442;47.448;8.582;2023-11-21T15:26:08;2.47;;;1.67;;
2868;SDS011;1442;47.448;8.582;2023-11-21T15:28:35;3.28;;;1.83;;
2868;SDS011;1442;47.448;8.582;2023-11-21T15:31:03;3.67;;;1.60;;